Time;durP1;ratioP1;P1;durP2;ratioP2;P2;SDS_P1;SDS_P2;PMS_P1;PMS_P2;Temp;Humidity;BMP_temperature;BMP_pressure;BME280_temperature;BME280_humidity;BME280_pressure;Samples;Min_cycle;Max_cycle;Signal;HPM_P1;HPM_P2
2023/06/12 00:01:49;;;;;;;6.05;3.67;;;20.50;92.20;;;;;;6186854;23;20093;-68
2023/06/12 00:04:15;;;;;;;5.18;3.45;;;20.40;92.30;;;;;;6189534;23;20025;-68
2023/06/12 00:06:41;;;;;;;8.25;3.63;;;20.40;92.20;;;;;;6187405;23;20016;-67
2023/06/12 00:09:07;;;;;;;5.00;3.30;;;20.30;92.40;;;;;;6188694;23;20025;-68
2023/06/12 00:11:33;;;;;;;8.90;3.88;;;20.30;92.40;;;;;;6188131;23;20047;-68
2023/06/12 00:13:59;;;;;;;7.95;3.97;;;20.20;92.40;;;;;;6187520;23;20059;-67
2023/06/12 00:16:25;;;;;;;7.18;3.53;;;20.20;92.60;;;;;;6189331;23;20024;-68
2023/06/12 00:18:52;;;;;;;6.70;3.30;;;20.10;92.60;;;;;;6186675;23;20494;-69
2023/06/12 00:21:19;;;;;;;6.07;3.88;;;20.10;92.50;;;;;;6189601;23;20067;-67
2023/06/12 00:23:46;;;;;;;5.22;3.55;;;20.10;92.50;;;;;;6187304;23;20017;-69
2023/06/12 00:26:12;;;;;;;7.15;3.22;;;20.10;92.60;;;;;;6188364;23;20040;-68
2023/06/12 00:28:37;;;;;;;9.30;3.30;;;20.00;92.60;;;;;;6187931;23;20021;-68
2023/06/12 00:31:03;;;;;;;5.95;3.10;;;20.00;93.00;;;;;;6188037;23;20519;-68
2023/06/12 00:33:29;;;;;;;4.00;2.72;;;19.90;93.20;;;;;;6189579;23;20033;-68
2023/06/12 00:35:55;;;;;;;5.88;3.63;;;19.90;93.10;;;;;;6186881;23;20051;-68
2023/06/12 00:38:21;;;;;;;8.25;3.15;;;19.90;93.10;;;;;;6190069;23;20450;-68
2023/06/12 00:40:47;;;;;;;4.07;3.42;;;19.90;93.00;;;;;;6187243;23;20021;-68
2023/06/12 00:43:14;;;;;;;8.32;3.35;;;19.80;93.20;;;;;;6189099;23;20025;-68
2023/06/12 00:45:40;;;;;;;6.82;3.30;;;19.70;93.30;;;;;;6188365;23;20024;-68
2023/06/12 00:48:06;;;;;;;6.45;2.90;;;19.60;93.30;;;;;;6188344;23;20084;-68
2023/06/12 00:50:32;;;;;;;8.50;3.35;;;19.60;93.40;;;;;;6162787;23;20021;-68
2023/06/12 00:52:59;;;;;;;4.78;2.90;;;19.60;93.40;;;;;;6186653;23;20028;-67
2023/06/12 00:55:26;;;;;;;7.65;2.92;;;19.60;93.40;;;;;;6189932;23;20069;-67
2023/06/12 00:57:52;;;;;;;7.35;3.17;;;19.60;93.40;;;;;;6186879;23;20024;-67
2023/06/12 01:00:19;;;;;;;7.20;3.08;;;19.50;93.60;;;;;;6188977;23;20075;-67
2023/06/12 01:02:51;;;;;;;6.18;3.08;;;19.50;93.70;;;;;;6161239;23;20075;-67
2023/06/12 01:05:28;;;;;;;6.97;3.28;;;19.40;93.70;;;;;;6187751;23;20057;-68
2023/06/12 01:08:15;;;;;;;8.27;3.13;;;19.40;93.80;;;;;;6189853;23;20029;-67
2023/06/12 01:10:47;;;;;;;4.35;3.00;;;19.30;94.10;;;;;;6186685;23;20028;-67
2023/06/12 01:13:16;;;;;;;5.75;3.10;;;19.30;94.00;;;;;;6188698;23;20088;-68
2023/06/12 01:15:42;;;;;;;5.40;3.05;;;19.20;93.90;;;;;;6187907;23;20021;-68
2023/06/12 01:18:08;;;;;;;5.40;3.03;;;19.20;94.10;;;;;;6187979;23;20988;-69
2023/06/12 01:20:35;;;;;;;5.25;3.10;;;19.10;94.30;;;;;;6189247;23;20032;-68
2023/06/12 01:23:18;;;;;;;9.90;2.60;;;19.10;94.40;;;;;;6186281;23;20392;-68
2023/06/12 01:26:06;;;;;;;6.50;3.17;;;19.10;94.40;;;;;;6188754;23;20029;-69
2023/06/12 01:29:07;;;;;;;4.28;2.70;;;19.10;94.40;;;;;;6187564;23;20025;-68
2023/06/12 01:31:56;;;;;;;4.28;2.90;;;19.00;94.50;;;;;;6186378;23;20049;-68
2023/06/12 01:34:28;;;;;;;5.20;3.38;;;19.00;94.60;;;;;;6192727;23;20025;-69
2023/06/12 01:37:05;;;;;;;8.02;3.15;;;18.90;95.20;;;;;;6192103;23;20024;-69
2023/06/12 01:39:38;;;;;;;5.90;2.65;;;19.00;95.20;;;;;;6188684;23;20021;-68
2023/06/12 01:42:07;;;;;;;6.47;2.95;;;18.90;94.90;;;;;;6188819;23;20017;-68
2023/06/12 01:44:33;;;;;;;6.10;2.90;;;18.80;95.20;;;;;;6186240;23;20025;-68
2023/06/12 01:46:59;;;;;;;5.70;3.00;;;18.80;95.00;;;;;;6188896;23;20580;-68
2023/06/12 01:49:25;;;;;;;4.85;2.97;;;18.80;95.00;;;;;;6186628;23;20084;-68
2023/06/12 01:51:51;;;;;;;8.55;3.13;;;18.80;95.50;;;;;;6188272;23;20462;-67
2023/06/12 01:54:22;;;;;;;6.68;3.30;;;18.70;95.40;;;;;;6187287;23;20355;-68
2023/06/12 01:56:49;;;;;;;8.98;3.00;;;18.60;95.80;;;;;;6187056;23;20017;-69
2023/06/12 01:59:15;;;;;;;5.45;2.90;;;18.70;95.90;;;;;;6188892;23;20056;-68
2023/06/12 02:01:41;;;;;;;5.70;2.72;;;18.60;95.60;;;;;;6186198;23;20017;-68
2023/06/12 02:04:07;;;;;;;3.08;2.28;;;18.60;95.60;;;;;;6188938;23;20017;-68
2023/06/12 02:06:32;;;;;;;5.47;2.90;;;18.60;95.90;;;;;;6186272;23;20020;-69
2023/06/12 02:09:00;;;;;;;4.15;2.72;;;18.60;96.40;;;;;;6188600;23;20045;-68
2023/06/12 02:11:26;;;;;;;5.18;2.78;;;18.60;95.80;;;;;;6187600;23;20028;-69
2023/06/12 02:13:52;;;;;;;4.35;2.70;;;18.60;95.90;;;;;;6187847;23;20355;-68
2023/06/12 02:16:21;;;;;;;4.40;3.08;;;18.60;95.70;;;;;;6190842;23;20069;-68
2023/06/12 02:18:49;;;;;;;5.97;2.97;;;18.50;96.10;;;;;;6203209;23;20019;-69
2023/06/12 02:21:15;;;;;;;4.07;2.65;;;18.40;96.20;;;;;;6190244;23;20068;-68
2023/06/12 02:23:41;;;;;;;3.75;2.90;;;18.40;96.40;;;;;;6187016;23;20021;-68
2023/06/12 02:26:07;;;;;;;11.15;2.65;;;18.30;96.30;;;;;;6187768;23;20024;-68
2023/06/12 02:28:33;;;;;;;5.72;2.63;;;18.40;96.80;;;;;;6187483;23;20020;-68
2023/06/12 02:30:58;;;;;;;4.53;2.85;;;18.30;97.10;;;;;;6187397;23;20357;-68
2023/06/12 02:33:25;;;;;;;5.35;3.10;;;18.30;96.80;;;;;;6188311;23;20021;-68
2023/06/12 02:35:51;;;;;;;7.30;2.88;;;18.30;97.00;;;;;;6185920;23;20021;-68
2023/06/12 02:38:17;;;;;;;5.65;2.90;;;18.20;97.20;;;;;;6188636;23;20048;-68
2023/06/12 02:40:43;;;;;;;6.57;2.88;;;18.20;97.20;;;;;;6185894;23;20048;-67
2023/06/12 02:43:08;;;;;;;4.15;2.60;;;18.20;96.90;;;;;;6188338;23;20025;-68
2023/06/12 02:45:34;;;;;;;4.35;2.70;;;18.10;97.20;;;;;;6187020;23;20056;-68
2023/06/12 02:48:00;;;;;;;8.65;3.10;;;18.20;97.30;;;;;;6187282;23;20032;-68
2023/06/12 02:50:26;;;;;;;6.28;2.92;;;18.10;97.10;;;;;;6188136;23;20048;-68
2023/06/12 02:52:52;;;;;;;6.55;2.85;;;18.20;97.00;;;;;;6185309;23;20017;-68
2023/06/12 02:55:18;;;;;;;7.97;3.00;;;18.20;97.10;;;;;;6188833;23;20021;-68
2023/06/12 02:57:44;;;;;;;9.77;4.15;;;18.20;97.00;;;;;;6185439;23;20021;-67
2023/06/12 03:00:12;;;;;;;7.15;2.97;;;18.20;97.00;;;;;;6188453;23;20025;-67
2023/06/12 03:02:42;;;;;;;4.50;2.72;;;18.10;97.20;;;;;;6186933;23;20040;-67
2023/06/12 03:05:12;;;;;;;7.07;3.15;;;18.10;97.00;;;;;;6187215;23;20027;-69
2023/06/12 03:07:40;;;;;;;9.82;3.70;;;18.10;97.10;;;;;;6188247;23;20032;-68
2023/06/12 03:10:07;;;;;;;7.18;3.10;;;18.10;97.10;;;;;;6185567;23;20048;-68
2023/06/12 03:12:32;;;;;;;3.75;2.53;;;18.00;97.20;;;;;;6188646;23;20359;-68
2023/06/12 03:14:59;;;;;;;5.38;3.47;;;18.00;97.20;;;;;;6185792;23;20025;-68
2023/06/12 03:17:25;;;;;;;6.95;3.03;;;17.90;97.30;;;;;;6187876;23;20029;-68
2023/06/12 03:19:53;;;;;;;5.80;3.03;;;17.90;97.50;;;;;;6186662;23;20055;-68
2023/06/12 03:22:21;;;;;;;3.40;2.50;;;17.90;97.60;;;;;;6186317;23;20027;-67
2023/06/12 03:24:53;;;;;;;4.90;3.10;;;17.90;97.60;;;;;;6188536;23;20021;-67
2023/06/12 03:27:25;;;;;;;8.85;3.15;;;17.80;97.50;;;;;;6187219;23;20620;-68
2023/06/12 03:29:51;;;;;;;3.47;2.65;;;17.80;97.60;;;;;;6190116;23;20032;-68
2023/06/12 03:32:17;;;;;;;5.50;2.85;;;17.80;97.50;;;;;;6187723;23;20435;-68
2023/06/12 03:34:42;;;;;;;3.95;2.50;;;17.80;97.60;;;;;;6189228;23;20458;-67
2023/06/12 03:37:08;;;;;;;4.45;3.10;;;17.80;98.00;;;;;;6188679;23;20024;-67
2023/06/12 03:39:34;;;;;;;5.68;3.03;;;17.70;98.10;;;;;;6188105;23;20343;-67
2023/06/12 03:42:00;;;;;;;6.38;3.33;;;17.70;97.80;;;;;;6189881;23;20021;-68
2023/06/12 03:44:26;;;;;;;9.20;3.03;;;17.70;97.80;;;;;;6186904;23;20042;-67
2023/06/12 03:46:51;;;;;;;8.82;3.03;;;17.70;97.90;;;;;;6190179;23;20021;-68
2023/06/12 03:49:17;;;;;;;6.18;2.92;;;17.70;98.00;;;;;;6187433;23;20085;-67
2023/06/12 03:51:43;;;;;;;8.18;4.35;;;17.70;98.10;;;;;;6188627;23;20026;-68
2023/06/12 03:54:10;;;;;;;5.93;3.08;;;17.80;97.90;;;;;;6188087;23;20364;-68
2023/06/12 03:56:36;;;;;;;4.63;3.00;;;17.90;98.40;;;;;;6188127;23;20100;-67
2023/06/12 03:59:02;;;;;;;4.30;2.72;;;17.90;98.20;;;;;;6189447;23;20021;-68
2023/06/12 04:01:28;;;;;;;5.00;2.80;;;18.00;98.00;;;;;;6186818;23;20504;-68
2023/06/12 04:03:56;;;;;;;6.05;2.80;;;18.00;98.10;;;;;;6189902;23;20107;-68
2023/06/12 04:06:22;;;;;;;5.13;3.72;;;18.10;98.70;;;;;;6186501;23;20028;-68
2023/06/12 04:08:48;;;;;;;7.53;3.47;;;18.10;98.00;;;;;;6188955;23;20021;-67
2023/06/12 04:11:14;;;;;;;6.78;4.22;;;18.20;98.00;;;;;;6187920;23;20225;-68
2023/06/12 04:13:41;;;;;;;6.35;3.45;;;18.10;98.20;;;;;;6188164;23;20056;-68
2023/06/12 04:16:07;;;;;;;7.88;2.63;;;18.30;98.10;;;;;;6189097;23;20023;-68
2023/06/12 04:18:37;;;;;;;7.70;3.72;;;18.30;98.10;;;;;;6186797;23;20032;-68
2023/06/12 04:21:04;;;;;;;7.25;3.70;;;18.20;98.30;;;;;;6189441;23;20036;-68
2023/06/12 04:23:31;;;;;;;7.45;3.10;;;18.10;98.40;;;;;;6186749;23;20017;-69
2023/06/12 04:26:06;;;;;;;6.95;2.97;;;18.10;98.50;;;;;;6188843;23;20453;-68
2023/06/12 04:28:32;;;;;;;5.43;3.22;;;18.20;98.60;;;;;;6187943;23;20888;-69
2023/06/12 04:30:59;;;;;;;8.38;3.70;;;18.30;98.40;;;;;;6187828;23;20087;-69
2023/06/12 04:33:37;;;;;;;7.57;3.22;;;18.30;98.40;;;;;;6189267;23;20021;-69
2023/06/12 04:36:04;;;;;;;6.47;3.22;;;18.30;98.60;;;;;;6186714;23;20072;-69
2023/06/12 04:38:36;;;;;;;4.47;3.00;;;18.30;98.40;;;;;;6188747;23;20021;-69
2023/06/12 04:41:02;;;;;;;8.20;3.33;;;18.40;98.50;;;;;;6187533;23;20017;-69
2023/06/12 04:43:29;;;;;;;5.82;3.20;;;18.30;98.50;;;;;;6188670;23;20025;-69
2023/06/12 04:45:55;;;;;;;8.05;4.10;;;18.20;98.80;;;;;;6188430;23;20071;-68
2023/06/12 04:48:21;;;;;;;6.78;3.53;;;18.30;98.70;;;;;;6187562;23;20025;-69
2023/06/12 04:50:47;;;;;;;6.57;3.55;;;18.40;98.70;;;;;;6189396;23;20028;-68
2023/06/12 04:53:17;;;;;;;9.18;3.67;;;18.60;98.80;;;;;;6186886;23;20024;-69
2023/06/12 04:55:50;;;;;;;8.25;3.72;;;18.70;98.70;;;;;;6189649;23;20016;-68
2023/06/12 04:58:17;;;;;;;;;;;18.70;98.70;;;;;;6188769;23;20017;-68
2023/06/12 05:00:47;;;;;;;8.93;3.90;;;18.80;99.00;;;;;;6189375;23;19948;-68
2023/06/12 05:03:16;;;;;;;9.10;3.70;;;18.90;98.50;;;;;;6204245;23;20060;-68
2023/06/12 05:05:44;;;;;;;5.28;3.45;;;19.00;98.40;;;;;;6186930;23;20027;-68
2023/06/12 05:08:10;;;;;;;8.02;3.83;;;19.10;98.70;;;;;;6189837;23;20017;-67
2023/06/12 05:10:35;;;;;;;7.38;3.38;;;19.30;98.30;;;;;;6186690;23;20075;-67
2023/06/12 05:13:02;;;;;;;7.80;3.60;;;19.40;98.40;;;;;;6188736;23;20021;-68
2023/06/12 05:15:29;;;;;;;7.82;3.28;;;19.40;98.50;;;;;;6187569;23;20021;-68
2023/06/12 05:17:54;;;;;;;5.40;3.78;;;19.60;98.60;;;;;;6187645;23;20718;-68
2023/06/12 05:20:20;;;;;;;12.57;4.15;;;19.70;98.30;;;;;;6188427;23;20021;-68
2023/06/12 05:22:46;;;;;;;8.00;3.90;;;19.80;98.20;;;;;;6186770;23;20116;-68
2023/06/12 05:25:13;;;;;;;5.75;3.67;;;19.80;98.00;;;;;;6189097;23;20304;-68
2023/06/12 05:27:39;;;;;;;6.07;3.55;;;19.90;97.90;;;;;;6186733;23;20021;-68
2023/06/12 05:30:06;;;;;;;7.57;3.92;;;20.00;98.00;;;;;;6188909;23;20020;-68
2023/06/12 05:32:32;;;;;;;6.97;3.13;;;20.00;98.10;;;;;;6186989;23;20017;-68
2023/06/12 05:34:58;;;;;;;5.60;3.53;;;20.10;98.10;;;;;;6187564;23;20515;-69
2023/06/12 05:37:26;;;;;;;6.22;3.80;;;20.00;98.10;;;;;;6188287;23;20025;-66
2023/06/12 05:39:53;;;;;;;4.70;3.72;;;20.10;98.20;;;;;;6186253;23;20488;-67
2023/06/12 05:42:19;;;;;;;7.45;3.60;;;20.20;97.90;;;;;;6188742;23;20021;-68
2023/06/12 05:44:46;;;;;;;7.85;3.88;;;20.30;97.90;;;;;;6185905;23;20064;-67
2023/06/12 05:47:12;;;;;;;5.22;4.05;;;20.40;97.70;;;;;;6187943;23;20017;-67
2023/06/12 05:49:38;;;;;;;5.90;3.33;;;20.40;98.00;;;;;;6187104;23;20032;-68
2023/06/12 05:52:05;;;;;;;6.20;3.92;;;20.50;97.70;;;;;;6187030;23;20047;-67
2023/06/12 05:54:33;;;;;;;6.63;4.22;;;20.50;97.80;;;;;;6187958;23;20492;-67
2023/06/12 05:57:00;;;;;;;10.93;4.03;;;20.60;97.70;;;;;;6159436;23;20021;-67
2023/06/12 05:59:26;;;;;;;6.72;4.03;;;20.60;97.90;;;;;;6188700;23;20016;-67
2023/06/12 06:01:52;;;;;;;5.80;3.78;;;20.70;97.90;;;;;;6185693;23;20017;-67
2023/06/12 06:04:18;;;;;;;6.28;3.70;;;20.80;97.70;;;;;;6188130;23;20029;-73
2023/06/12 06:06:48;;;;;;;7.30;3.83;;;20.70;97.70;;;;;;6187069;23;20024;-72
2023/06/12 06:09:17;;;;;;;6.40;4.18;;;20.30;98.20;;;;;;6187751;23;20048;-73
2023/06/12 06:11:42;;;;;;;8.77;4.20;;;20.30;98.60;;;;;;6188305;23;20429;-74
2023/06/12 06:14:11;;;;;;;8.45;4.32;;;20.20;98.50;;;;;;6159945;23;20032;-73
2023/06/12 06:16:36;;;;;;;7.15;4.03;;;20.30;98.30;;;;;;6188597;23;20017;-72
2023/06/12 06:19:02;;;;;;;9.70;4.90;;;20.50;98.20;;;;;;6184576;23;20021;-74
2023/06/12 06:21:30;;;;;;;9.80;4.38;;;20.50;98.10;;;;;;6187851;23;20470;-72
2023/06/12 06:23:59;;;;;;;7.05;4.55;;;20.50;97.90;;;;;;6186442;23;20020;-72
2023/06/12 06:26:28;;;;;;;10.52;4.82;;;20.50;98.00;;;;;;6186206;23;20025;-69
2023/06/12 06:28:53;;;;;;;8.00;4.13;;;20.40;98.10;;;;;;6187609;23;20058;-70
2023/06/12 06:31:19;;;;;;;7.70;3.97;;;20.50;98.50;;;;;;6185224;23;20017;-69
2023/06/12 06:33:45;;;;;;;9.00;4.22;;;20.50;98.60;;;;;;6187758;23;20020;-71
2023/06/12 06:36:11;;;;;;;8.25;4.25;;;20.60;98.40;;;;;;6184677;23;20056;-70
2023/06/12 06:38:36;;;;;;;10.88;4.55;;;20.60;98.10;;;;;;6187895;23;20028;-67
2023/06/12 06:41:03;;;;;;;8.35;4.30;;;20.70;98.10;;;;;;6186810;23;20024;-69
2023/06/12 06:43:28;;;;;;;8.23;4.82;;;20.70;98.20;;;;;;6187825;23;20032;-69
2023/06/12 06:45:54;;;;;;;6.90;3.97;;;20.70;97.80;;;;;;6187522;23;20024;-69
2023/06/12 06:48:20;;;;;;;7.68;4.22;;;20.90;98.20;;;;;;6186744;23;20232;-69
2023/06/12 06:50:46;;;;;;;8.52;4.70;;;21.00;97.90;;;;;;6162071;23;20020;-69
2023/06/12 06:53:12;;;;;;;8.63;4.97;;;20.80;98.00;;;;;;6185397;23;20021;-69
2023/06/12 06:55:38;;;;;;;7.32;4.95;;;20.80;98.40;;;;;;6188310;23;20032;-68
2023/06/12 06:58:04;;;;;;;8.23;4.15;;;21.00;97.90;;;;;;6185688;23;20040;-69
2023/06/12 07:00:33;;;;;;;9.05;4.65;;;21.10;98.10;;;;;;6188854;23;20041;-69
2023/06/12 07:02:58;;;;;;;10.98;5.18;;;21.30;97.90;;;;;;6189539;23;20025;-68
2023/06/12 07:05:27;;;;;;;8.68;4.40;;;21.40;97.60;;;;;;6188231;23;20449;-67
2023/06/12 07:07:52;;;;;;;8.23;4.47;;;21.50;98.00;;;;;;6190277;23;20021;-68
2023/06/12 07:10:18;;;;;;;8.63;4.63;;;21.50;97.40;;;;;;6187876;23;20035;-68
2023/06/12 07:12:44;;;;;;;7.90;5.13;;;21.50;98.40;;;;;;6163886;23;20052;-71
2023/06/12 07:15:10;;;;;;;10.85;5.25;;;21.60;97.50;;;;;;6188082;23;20024;-72
2023/06/12 07:17:36;;;;;;;6.38;4.57;;;21.60;97.40;;;;;;6189575;23;20021;-71
2023/06/12 07:20:04;;;;;;;7.53;4.75;;;21.70;97.50;;;;;;6189448;23;20668;-71
2023/06/12 07:22:30;;;;;;;6.78;4.25;;;21.80;97.30;;;;;;6188423;23;20095;-71
2023/06/12 07:24:56;;;;;;;6.80;4.13;;;21.80;97.40;;;;;;6190650;23;20024;-71
2023/06/12 07:27:25;;;;;;;8.80;4.63;;;21.90;97.30;;;;;;6187402;23;20016;-71
2023/06/12 07:29:51;;;;;;;7.45;4.30;;;22.00;97.40;;;;;;6190203;23;20017;-72
2023/06/12 07:32:17;;;;;;;5.75;5.05;;;22.10;97.10;;;;;;6188221;23;20072;-72
2023/06/12 07:34:42;;;;;;;13.13;4.70;;;22.10;96.60;;;;;;6189615;23;20021;-71
2023/06/12 07:37:08;;;;;;;7.85;3.88;;;22.30;97.00;;;;;;6189904;23;20025;-71
2023/06/12 07:39:34;;;;;;;9.60;4.60;;;22.40;96.80;;;;;;6189667;23;20017;-72
2023/06/12 07:42:01;;;;;;;6.18;4.43;;;22.60;97.20;;;;;;6191677;23;20021;-72
2023/06/12 07:44:27;;;;;;;12.68;4.80;;;22.80;97.20;;;;;;6195055;23;20771;-72
2023/06/12 07:46:53;;;;;;;9.00;4.60;;;22.80;97.10;;;;;;6175730;23;20020;-70
2023/06/12 07:49:18;;;;;;;7.07;4.35;;;22.90;97.30;;;;;;6189104;23;20048;-72
2023/06/12 07:51:44;;;;;;;8.73;4.60;;;22.90;97.10;;;;;;6190417;23;20016;-72
2023/06/12 07:54:12;;;;;;;9.85;4.65;;;22.90;96.90;;;;;;6189755;23;20036;-72
2023/06/12 07:56:39;;;;;;;6.88;4.53;;;22.90;96.60;;;;;;6189077;23;20088;-71
2023/06/12 07:59:09;;;;;;;10.82;4.35;;;23.00;97.00;;;;;;6189302;23;20045;-74
2023/06/12 08:01:36;;;;;;;8.40;4.75;;;23.10;96.80;;;;;;6187196;23;20055;-73
2023/06/12 08:04:05;;;;;;;7.45;4.30;;;23.30;96.80;;;;;;6189368;23;20052;-73
2023/06/12 08:06:34;;;;;;;9.05;4.18;;;23.40;96.50;;;;;;6187753;23;20072;-73
2023/06/12 08:09:00;;;;;;;5.90;4.30;;;23.40;96.40;;;;;;6189010;23;20049;-73
2023/06/12 08:11:26;;;;;;;8.77;4.45;;;23.60;96.70;;;;;;6188456;23;20091;-73
2023/06/12 08:13:54;;;;;;;5.85;4.15;;;23.70;96.80;;;;;;6188009;23;20017;-74
2023/06/12 08:16:25;;;;;;;6.68;4.43;;;23.80;96.50;;;;;;6189737;23;20489;-69
2023/06/12 08:18:51;;;;;;;9.48;4.28;;;24.00;95.80;;;;;;6186900;23;20021;-68
2023/06/12 08:21:17;;;;;;;10.30;4.22;;;24.10;95.80;;;;;;6189110;23;20017;-68
2023/06/12 08:23:43;;;;;;;5.60;3.95;;;24.20;95.50;;;;;;6186865;23;20028;-68
2023/06/12 08:26:11;;;;;;;6.30;3.85;;;24.30;95.60;;;;;;6188155;23;20099;-67
2023/06/12 08:28:37;;;;;;;9.77;3.95;;;24.40;95.20;;;;;;6187945;23;20476;-68
2023/06/12 08:31:04;;;;;;;9.32;4.35;;;24.60;95.30;;;;;;6187362;23;20087;-68
2023/06/12 08:33:30;;;;;;;7.05;4.32;;;24.50;94.50;;;;;;6189325;23;20047;-68
2023/06/12 08:35:58;;;;;;;7.80;4.47;;;24.80;94.20;;;;;;6159792;23;20072;-68
2023/06/12 08:38:24;;;;;;;6.18;4.10;;;24.80;94.30;;;;;;6188037;23;20063;-68
2023/06/12 08:40:54;;;;;;;8.90;4.43;;;24.90;94.30;;;;;;6187046;23;20025;-68
2023/06/12 08:43:19;;;;;;;7.95;4.65;;;24.90;94.20;;;;;;6188421;23;20013;-68
2023/06/12 08:45:47;;;;;;;7.22;4.53;;;25.00;94.10;;;;;;6187804;23;20043;-68
2023/06/12 08:48:17;;;;;;;7.35;4.43;;;25.10;93.40;;;;;;6187210;23;20024;-68
2023/06/12 08:50:44;;;;;;;5.28;4.25;;;25.20;93.70;;;;;;6189095;23;20021;-68
2023/06/12 08:53:10;;;;;;;5.72;4.18;;;25.30;93.80;;;;;;6186137;23;20055;-68
2023/06/12 08:55:39;;;;;;;8.05;4.40;;;25.40;93.70;;;;;;6188739;23;20049;-68
2023/06/12 08:58:07;;;;;;;6.72;4.90;;;25.60;92.80;;;;;;6187067;23;20013;-68
2023/06/12 09:00:33;;;;;;;7.05;4.07;;;25.60;92.60;;;;;;6187847;23;20025;-68
2023/06/12 09:03:00;;;;;;;7.95;4.80;;;25.70;92.60;;;;;;6188145;23;20064;-68
2023/06/12 09:05:33;;;;;;;6.40;4.05;;;25.60;92.00;;;;;;6160198;23;20029;-68
2023/06/12 09:08:03;;;;;;;10.38;4.82;;;25.60;92.50;;;;;;6189098;23;20116;-68
2023/06/12 09:10:31;;;;;;;8.70;4.78;;;25.70;92.70;;;;;;6185953;23;20454;-68
2023/06/12 09:13:04;;;;;;;8.88;4.43;;;25.90;92.70;;;;;;6188642;23;20108;-68
2023/06/12 09:15:30;;;;;;;7.55;4.65;;;25.90;92.50;;;;;;6187511;23;20017;-68
2023/06/12 09:17:56;;;;;;;10.68;4.80;;;26.00;91.90;;;;;;6187851;23;20395;-71
2023/06/12 09:20:33;;;;;;;8.15;4.70;;;26.00;92.20;;;;;;6187687;23;20047;-70
2023/06/12 09:23:05;;;;;;;6.25;4.53;;;26.10;91.30;;;;;;6185788;23;20025;-70
2023/06/12 09:25:35;;;;;;;7.03;4.40;;;26.20;90.70;;;;;;6188492;23;20017;-68
2023/06/12 09:28:03;;;;;;;6.63;4.57;;;26.30;91.30;;;;;;6186964;23;20455;-69
2023/06/12 09:30:31;;;;;;;6.75;4.65;;;26.40;91.30;;;;;;6188100;23;20421;-69
2023/06/12 09:33:00;;;;;;;6.57;4.45;;;26.50;91.20;;;;;;6188396;23;20116;-69
2023/06/12 09:35:25;;;;;;;9.25;4.65;;;26.60;90.60;;;;;;6186792;23;20028;-69
2023/06/12 09:37:51;;;;;;;10.02;4.97;;;26.60;90.10;;;;;;6189392;23;20013;-69
2023/06/12 09:40:20;;;;;;;6.90;4.35;;;26.70;89.30;;;;;;6186398;23;20021;-70
2023/06/12 09:42:46;;;;;;;6.60;4.65;;;26.70;89.60;;;;;;6189059;23;20044;-69
2023/06/12 09:45:17;;;;;;;7.30;4.88;;;26.70;89.80;;;;;;6187133;23;20047;-70
2023/06/12 09:47:47;;;;;;;6.07;4.47;;;26.80;90.20;;;;;;6187618;23;20024;-70
2023/06/12 09:50:15;;;;;;;6.55;5.10;;;26.90;88.20;;;;;;6188722;23;20338;-70
2023/06/12 09:52:43;;;;;;;10.68;4.90;;;27.00;88.50;;;;;;6186260;23;20017;-69
2023/06/12 09:55:15;;;;;;;8.23;5.35;;;27.10;87.30;;;;;;6189457;23;20024;-70
2023/06/12 09:57:50;;;;;;;6.68;4.97;;;27.10;86.20;;;;;;6186494;23;20033;-68
2023/06/12 10:00:17;;;;;;;9.55;4.93;;;27.20;86.60;;;;;;6188728;23;20017;-68
2023/06/12 10:03:02;;;;;;;9.18;5.00;;;27.20;87.50;;;;;;6187315;23;20021;-68
2023/06/12 10:05:35;;;;;;;6.30;4.63;;;27.20;87.70;;;;;;6186566;23;20064;-68
2023/06/12 10:08:03;;;;;;;6.13;4.68;;;27.20;83.30;;;;;;6189685;23;20017;-69
2023/06/12 10:10:33;;;;;;;10.30;4.70;;;27.30;84.60;;;;;;6186713;23;20461;-69
2023/06/12 10:13:00;;;;;;;6.55;4.30;;;27.40;79.00;;;;;;6188922;23;20048;-69
2023/06/12 10:15:27;;;;;;;8.80;4.53;;;27.40;80.80;;;;;;6188117;23;20044;-68
2023/06/12 10:17:53;;;;;;;7.13;4.53;;;27.40;82.80;;;;;;6188016;23;20019;-68
2023/06/12 10:20:22;;;;;;;6.38;4.75;;;27.30;81.20;;;;;;6189926;23;20076;-68
2023/06/12 10:22:48;;;;;;;8.70;5.40;;;27.40;80.50;;;;;;6187679;23;20021;-69
2023/06/12 10:25:16;;;;;;;6.45;4.63;;;27.50;79.30;;;;;;6191963;23;20023;-69
2023/06/12 10:27:43;;;;;;;6.00;5.20;;;27.60;80.50;;;;;;6194429;23;20032;-69
2023/06/12 10:30:11;;;;;;;6.57;4.80;;;27.50;80.30;;;;;;6197566;23;20025;-69
2023/06/12 10:32:37;;;;;;;7.40;4.70;;;27.60;80.40;;;;;;6187585;23;20021;-69
2023/06/12 10:35:03;;;;;;;6.60;4.55;;;27.60;80.10;;;;;;6187400;23;20065;-70
2023/06/12 10:37:33;;;;;;;8.73;5.50;;;27.50;80.40;;;;;;6188407;23;20069;-70
2023/06/12 10:40:10;;;;;;;7.50;4.53;;;27.60;81.70;;;;;;6185168;23;20116;-69
2023/06/12 10:42:54;;;;;;;6.35;5.03;;;27.50;81.40;;;;;;6162034;23;20027;-76
2023/06/12 10:45:25;;;;;;;8.00;5.22;;;27.60;80.50;;;;;;6186943;23;20021;-69
2023/06/12 10:48:05;;;;;;;11.75;5.43;;;27.40;80.50;;;;;;6187286;23;20017;-69
2023/06/12 10:50:52;;;;;;;11.25;5.60;;;27.40;79.90;;;;;;6188018;23;20021;-70
2023/06/12 10:53:31;;;;;;;14.20;5.22;;;27.30;78.90;;;;;;6185185;23;20025;-69
2023/06/12 10:56:07;;;;;;;11.63;5.93;;;27.50;77.50;;;;;;6187660;23;20036;-69
2023/06/12 10:58:41;;;;;;;11.38;5.85;;;27.60;76.70;;;;;;6187308;23;20104;-70
2023/06/12 11:01:13;;;;;;;7.40;5.72;;;27.60;78.60;;;;;;6185947;23;20171;-72
2023/06/12 11:03:43;;;;;;;8.68;5.68;;;27.90;79.70;;;;;;6188648;23;20021;-71
2023/06/12 11:06:16;;;;;;;7.18;5.68;;;27.80;78.10;;;;;;6185332;23;20021;-70
2023/06/12 11:08:45;;;;;;;7.45;5.63;;;27.80;78.10;;;;;;6187973;23;20032;-71
2023/06/12 11:11:12;;;;;;;7.43;5.40;;;27.90;79.50;;;;;;6186842;23;20024;-70
2023/06/12 11:13:42;;;;;;;6.28;5.22;;;27.90;78.80;;;;;;6186829;23;20096;-70
2023/06/12 11:16:24;;;;;;;7.68;5.68;;;28.10;78.80;;;;;;6187789;23;20040;-70
2023/06/12 11:19:10;;;;;;;;;;;28.10;78.50;;;;;;6186440;23;20084;-71
2023/06/12 11:21:40;;;;;;;12.23;5.45;;;28.00;77.30;;;;;;6186712;23;19943;-71
2023/06/12 11:24:07;;;;;;;7.57;4.85;;;27.80;79.30;;;;;;6186536;23;20088;-70
2023/06/12 11:26:33;;;;;;;6.85;5.10;;;27.60;77.50;;;;;;6186475;23;20021;-71
2023/06/12 11:29:25;;;;;;;6.35;5.28;;;27.70;79.60;;;;;;6187991;23;20028;-71
2023/06/12 11:32:01;;;;;;;11.02;5.47;;;27.70;75.80;;;;;;6185517;23;20017;-71
2023/06/12 11:34:36;;;;;;;10.90;5.25;;;27.80;76.70;;;;;;6187805;23;20044;-71
2023/06/12 11:37:21;;;;;;;13.15;5.68;;;27.80;77.10;;;;;;6186960;23;20044;-72
2023/06/12 11:39:58;;;;;;;5.95;5.15;;;28.00;76.10;;;;;;6186414;23;20048;-71
2023/06/12 11:42:25;;;;;;;6.35;5.07;;;28.20;76.70;;;;;;6162264;23;20017;-71
2023/06/12 11:44:51;;;;;;;8.65;5.50;;;28.20;76.10;;;;;;6186368;23;20089;-71
2023/06/12 11:47:22;;;;;;;12.07;5.80;;;28.10;74.00;;;;;;6163579;23;20021;-71
2023/06/12 11:49:47;;;;;;;6.50;4.85;;;28.00;76.30;;;;;;6188704;23;20021;-70
2023/06/12 11:52:14;;;;;;;7.95;5.85;;;28.00;76.50;;;;;;6188388;23;20021;-70
2023/06/12 11:54:56;;;;;;;9.02;5.50;;;28.10;75.20;;;;;;6189822;23;20359;-69
2023/06/12 11:57:26;;;;;;;8.45;5.63;;;28.40;76.20;;;;;;6187272;23;20100;-70
2023/06/12 11:59:56;;;;;;;7.05;5.20;;;28.40;72.10;;;;;;6189990;23;20048;-70
2023/06/12 12:02:31;;;;;;;8.07;5.28;;;28.40;73.50;;;;;;6188076;23;20025;-70
2023/06/12 12:04:58;;;;;;;6.65;5.10;;;28.60;72.80;;;;;;6190060;23;20025;-69
2023/06/12 12:07:25;;;;;;;8.35;5.50;;;28.70;74.20;;;;;;6191609;23;20077;-69
2023/06/12 12:10:12;;;;;;;6.75;5.38;;;28.60;71.40;;;;;;6191026;23;20025;-70
2023/06/12 12:12:45;;;;;;;9.20;5.35;;;28.70;72.60;;;;;;6195875;23;20056;-68
2023/06/12 12:15:15;;;;;;;6.82;5.43;;;28.70;74.30;;;;;;6198552;23;20017;-68
2023/06/12 12:17:42;;;;;;;6.22;4.85;;;28.80;74.40;;;;;;6198114;23;20545;-68
2023/06/12 12:20:17;;;;;;;6.53;5.03;;;28.70;73.40;;;;;;6196015;23;20021;-69
2023/06/12 12:22:46;;;;;;;8.02;5.05;;;28.60;73.00;;;;;;6197172;23;20021;-68
2023/06/12 12:25:22;;;;;;;7.57;5.10;;;28.60;73.10;;;;;;6202575;23;20017;-69
2023/06/12 12:27:51;;;;;;;7.25;5.38;;;28.60;72.90;;;;;;6201999;23;20020;-70
2023/06/12 12:30:18;;;;;;;6.45;4.93;;;28.70;73.80;;;;;;6203600;23;20647;-68
2023/06/12 12:32:54;;;;;;;8.82;5.25;;;28.60;74.00;;;;;;6201854;23;20045;-67
2023/06/12 12:35:21;;;;;;;7.95;5.40;;;28.60;74.20;;;;;;6199843;23;20027;-64
2023/06/12 12:37:49;;;;;;;6.70;5.10;;;28.60;73.10;;;;;;6200105;23;20064;-70
2023/06/12 12:40:15;;;;;;;5.57;4.90;;;28.60;74.10;;;;;;6173134;23;20036;-69
2023/06/12 12:42:43;;;;;;;6.38;5.30;;;28.40;74.80;;;;;;6202094;23;20013;-68
2023/06/12 12:45:13;;;;;;;5.75;4.63;;;28.50;75.10;;;;;;6198271;23;20021;-72
2023/06/12 12:47:40;;;;;;;6.97;5.13;;;28.60;73.70;;;;;;6198761;23;20028;-69
2023/06/12 12:50:07;;;;;;;8.00;5.25;;;28.70;74.80;;;;;;6199669;23;20065;-69
2023/06/12 12:52:33;;;;;;;6.68;4.85;;;28.80;73.50;;;;;;6172113;23;20068;-68